Time;durP1;ratioP1;P1;durP2;ratioP2;P2;SDS_P1;SDS_P2;PMS_P1;PMS_P2;Temp;Humidity;BMP_temperature;BMP_pressure;BME280_temperature;BME280_humidity;BME280_pressure;Samples;Min_cycle;Max_cycle;Signal;HPM_P1;HPM_P2
2022/10/12 00:00:44;;;;;;;16.15;10.40;;;;;;;6.83;95.54;99971.81;1694216;84;21066;-74
2022/10/12 00:03:11;;;;;;;21.40;11.65;;;;;;;6.92;95.28;99969.51;1694175;84;21116;-74
2022/10/12 00:05:38;;;;;;;15.05;10.10;;;;;;;7.00;95.29;99973.23;1694097;84;20975;-74
2022/10/12 00:08:05;;;;;;;14.35;9.95;;;;;;;7.07;95.16;99960.16;1694129;84;21023;-74
2022/10/12 00:10:32;;;;;;;15.43;9.38;;;;;;;7.15;94.70;99964.75;1694210;84;21006;-74
2022/10/12 00:12:59;;;;;;;14.55;10.10;;;;;;;7.22;94.49;99962.87;1694176;84;21023;-74
2022/10/12 00:15:26;;;;;;;14.58;9.28;;;;;;;7.30;94.24;99966.17;1693143;84;21088;-74
2022/10/12 00:17:52;;;;;;;15.32;9.90;;;;;;;7.40;93.85;99970.70;1688850;84;21046;-74
2022/10/12 00:20:19;;;;;;;14.55;9.88;;;;;;;7.46;93.41;99977.91;1688900;85;20959;-74
2022/10/12 00:22:45;;;;;;;13.13;9.15;;;;;;;7.49;93.06;99976.55;1670822;84;21548;-74
2022/10/12 00:25:12;;;;;;;14.23;9.60;;;;;;;7.52;92.66;99973.91;1663073;85;21018;-74
2022/10/12 00:27:38;;;;;;;12.18;8.98;;;;;;;7.53;92.21;99974.77;1663083;85;21135;-74
2022/10/12 00:30:07;;;;;;;11.57;8.20;;;;;;;7.56;91.71;99972.11;1663041;86;20966;-74
2022/10/12 00:32:33;;;;;;;11.25;8.38;;;;;;;7.59;91.20;99969.47;1663050;85;21510;-74
2022/10/12 00:34:59;;;;;;;12.93;8.13;;;;;;;7.63;90.90;99972.38;1662972;86;21018;-74
2022/10/12 00:37:26;;;;;;;13.95;8.78;;;;;;;7.66;90.64;99974.05;1663120;86;21053;-74
2022/10/12 00:39:52;;;;;;;12.28;8.50;;;;;;;7.68;90.57;99970.98;1663088;86;21125;-74
2022/10/12 00:42:19;;;;;;;15.40;8.90;;;;;;;7.69;90.15;99972.25;1662989;86;20954;-74
2022/10/12 00:44:49;;;;;;;14.15;8.98;;;;;;;7.70;90.04;99974.40;1663084;85;20942;-73
2022/10/12 00:47:35;;;;;;;16.15;9.40;;;;;;;7.66;90.07;99973.61;1663037;86;21010;-74
2022/10/12 00:50:13;;;;;;;14.43;10.00;;;;;;;7.63;90.57;99974.11;1663125;85;21462;-72
2022/10/12 00:53:02;;;;;;;13.13;8.75;;;;;;;7.59;90.86;99973.34;1671048;85;21168;-73
2022/10/12 00:55:31;;;;;;;12.53;8.60;;;;;;;7.55;90.97;99974.29;1676057;85;21471;-73
2022/10/12 00:57:59;;;;;;;9.98;7.50;;;;;;;7.50;91.04;99967.91;1663025;86;21006;-73
2022/10/12 01:00:26;;;;;;;11.50;8.48;;;;;;;7.48;91.19;99968.38;1663517;85;21026;-73
2022/10/12 01:02:53;;;;;;;12.28;8.35;;;;;;;7.47;91.42;99969.70;1663026;86;21026;-73
2022/10/12 01:05:20;;;;;;;11.90;8.50;;;;;;;7.45;91.66;99970.17;1662965;86;21158;-73
2022/10/12 01:07:46;;;;;;;12.37;8.60;;;;;;;7.43;92.07;99966.33;1654201;85;20963;-73
2022/10/12 01:10:13;;;;;;;11.57;7.85;;;;;;;7.40;92.56;99962.50;1672938;85;21066;-73
2022/10/12 01:12:43;;;;;;;14.53;7.40;;;;;;;7.38;93.17;99971.20;1672953;85;21098;-73
2022/10/12 01:15:10;;;;;;;11.30;7.42;;;;;;;7.37;94.25;99967.77;1665180;85;21592;-73
2022/10/12 01:17:54;;;;;;;12.43;8.18;;;;;;;7.37;95.25;99970.36;1662951;85;21762;-73
2022/10/12 01:20:42;;;;;;;12.45;8.35;;;;;;;7.38;96.22;99971.20;1662385;86;21081;-72
2022/10/12 01:23:20;;;;;;;11.40;8.05;;;;;;;7.39;96.43;99965.15;1663001;85;21074;-73
2022/10/12 01:25:55;;;;;;;13.65;8.15;;;;;;;7.39;96.86;99970.33;1673048;85;20976;-73
2022/10/12 01:28:53;;;;;;;9.30;7.03;;;;;;;7.36;97.35;99966.06;1672948;85;21032;-73
2022/10/12 01:31:30;;;;;;;14.15;7.92;;;;;;;7.34;97.88;99969.56;1672949;85;22013;-72
2022/10/12 01:34:19;;;;;;;10.40;7.22;;;;;;;7.32;98.62;99970.03;1672954;85;21022;-73
2022/10/12 01:37:03;;;;;;;11.28;8.33;;;;;;;7.31;99.27;99971.77;1662943;85;20962;-73
2022/10/12 01:39:34;;;;;;;13.10;8.70;;;;;;;7.30;99.61;99974.38;1660860;86;21034;-73
2022/10/12 01:48:53;;;;;;;11.65;9.38;;;;;;;7.21;100.00;99968.48;1663010;86;21601;-73
2022/10/12 01:51:54;;;;;;;13.05;8.53;;;;;;;7.19;100.00;99974.61;1662938;86;21085;-73
2022/10/12 01:54:38;;;;;;;12.60;9.33;;;;;;;7.15;100.00;99980.28;1664008;86;21580;-73
2022/10/12 01:57:41;;;;;;;12.68;9.53;;;;;;;7.11;100.00;99976.03;1673027;85;20955;-73
2022/10/12 02:00:11;;;;;;;13.25;9.30;;;;;;;7.08;100.00;99978.67;1670368;85;21127;-73
2022/10/12 02:03:30;;;;;;;15.13;9.50;;;;;;;7.06;100.00;99980.44;1663064;85;20967;-73
2022/10/12 02:06:08;;;;;;;14.23;9.85;;;;;;;7.05;100.00;99981.31;1672954;85;20963;-73
2022/10/12 02:08:41;;;;;;;13.38;9.65;;;;;;;7.04;100.00;99986.08;1664533;85;21407;-72
2022/10/12 02:11:12;;;;;;;11.65;9.55;;;;;;;7.04;100.00;99988.66;1663435;85;21454;-73
2022/10/12 02:13:50;;;;;;;13.98;8.45;;;;;;;7.03;100.00;99986.95;1662947;86;21312;-73
2022/10/12 02:16:20;;;;;;;11.28;8.70;;;;;;;7.04;100.00;99986.08;1663015;86;20962;-73
2022/10/12 02:18:51;;;;;;;13.93;8.93;;;;;;;7.04;100.00;99987.37;1662945;86;21438;-73
2022/10/12 02:21:20;;;;;;;10.70;8.55;;;;;;;7.03;100.00;99993.86;1663254;86;20977;-73
2022/10/12 02:23:47;;;;;;;14.98;9.85;;;;;;;7.02;100.00;99990.86;1680830;85;21010;-73
2022/10/12 02:26:14;;;;;;;14.05;9.38;;;;;;;7.01;100.00;100002.94;1684003;84;21226;-73
2022/10/12 02:28:40;;;;;;;11.45;8.30;;;;;;;7.00;100.00;100003.81;1683590;85;21046;-73
2022/10/12 02:31:16;;;;;;;13.85;8.23;;;;;;;7.00;100.00;100002.97;1683670;85;21466;-73
2022/10/12 02:33:56;;;;;;;9.95;8.83;;;;;;;6.98;100.00;100006.91;1683617;85;21059;-73
2022/10/12 02:36:43;;;;;;;11.25;9.90;;;;;;;6.95;100.00;100004.38;1684196;85;21591;-73
2022/10/12 02:39:18;;;;;;;12.65;9.15;;;;;;;6.93;100.00;100000.10;1686175;85;21117;-73
2022/10/12 02:41:49;;;;;;;11.30;9.25;;;;;;;6.87;100.00;100001.91;1684019;84;20995;-73
2022/10/12 02:44:23;;;;;;;11.40;9.60;;;;;;;6.87;100.00;100004.50;1683655;84;21014;-73
2022/10/12 02:46:51;;;;;;;14.25;9.80;;;;;;;6.85;100.00;100000.23;1683657;84;21026;-73
2022/10/12 02:49:18;;;;;;;12.53;9.20;;;;;;;6.84;100.00;100008.86;1683706;84;20971;-73
2022/10/12 02:51:45;;;;;;;15.35;10.65;;;;;;;6.83;100.00;100011.88;1683574;85;21526;-73
2022/10/12 02:54:12;;;;;;;11.38;9.55;;;;;;;6.81;100.00;100014.94;1683590;85;21019;-73
2022/10/12 02:56:45;;;;;;;11.20;8.40;;;;;;;6.79;100.00;100011.55;1683683;85;21019;-73
2022/10/12 02:59:14;;;;;;;10.65;8.78;;;;;;;6.78;100.00;100009.84;1683644;84;21014;-73
2022/10/12 03:01:41;;;;;;;13.45;9.90;;;;;;;6.77;100.00;100017.19;1683596;85;21042;-73
2022/10/12 03:04:08;;;;;;;12.35;8.98;;;;;;;6.76;100.00;100023.67;1683620;85;21320;-73
2022/10/12 03:06:34;;;;;;;15.98;10.20;;;;;;;6.75;100.00;100020.67;1683580;84;20988;-73
2022/10/12 03:09:01;;;;;;;16.20;9.60;;;;;;;6.73;100.00;100025.87;1683584;84;21538;-72
2022/10/12 03:11:27;;;;;;;10.98;8.83;;;;;;;6.72;100.00;100021.58;1683661;84;21031;-72
2022/10/12 03:13:54;;;;;;;10.98;9.30;;;;;;;6.72;100.00;100026.75;1683673;85;21067;-72
2022/10/12 03:16:20;;;;;;;13.48;10.55;;;;;;;6.72;100.00;100024.16;1683659;84;21131;-72
2022/10/12 03:18:49;;;;;;;11.60;9.53;;;;;;;6.72;100.00;100029.33;1683605;85;20955;-72
2022/10/12 03:21:15;;;;;;;13.00;8.93;;;;;;;6.73;100.00;100015.97;1683724;85;21007;-72
2022/10/12 03:23:42;;;;;;;11.80;8.60;;;;;;;6.74;100.00;100020.26;1683490;85;21062;-72
2022/10/12 03:26:09;;;;;;;13.65;9.80;;;;;;;6.73;100.00;100015.53;1683640;84;21522;-72
2022/10/12 03:28:35;;;;;;;15.03;9.30;;;;;;;6.74;100.00;100013.80;1683562;85;21269;-72
2022/10/12 03:31:01;;;;;;;12.93;9.50;;;;;;;6.75;100.00;100019.38;1683623;83;21123;-72
2022/10/12 03:33:28;;;;;;;11.55;9.13;;;;;;;6.72;100.00;100020.72;1683851;84;21018;-72
2022/10/12 03:35:54;;;;;;;14.78;10.10;;;;;;;6.70;100.00;100022.03;1683693;85;21039;-72
2022/10/12 03:38:21;;;;;;;16.90;10.32;;;;;;;6.68;100.00;100016.03;1683583;85;21101;-72
2022/10/12 03:40:48;;;;;;;12.43;10.30;;;;;;;6.68;100.00;100021.64;1683695;85;21560;-72
2022/10/12 03:43:16;;;;;;;14.55;10.13;;;;;;;6.66;100.00;100016.50;1683610;85;20955;-72
2022/10/12 03:45:43;;;;;;;16.10;10.18;;;;;;;6.65;100.00;100023.84;1683898;85;21066;-72
2022/10/12 03:48:09;;;;;;;12.78;9.78;;;;;;;6.60;100.00;100030.80;1683618;85;21019;-72
2022/10/12 03:50:36;;;;;;;14.95;10.30;;;;;;;6.58;100.00;100034.33;1684706;85;21019;-73
2022/10/12 03:53:03;;;;;;;16.05;10.78;;;;;;;6.55;100.00;100027.03;1683475;85;21130;-73
2022/10/12 03:55:32;;;;;;;15.65;12.98;;;;;;;6.53;100.00;100030.08;1683567;84;20955;-73
2022/10/12 03:57:58;;;;;;;15.00;11.35;;;;;;;6.51;100.00;100029.24;1683642;85;21015;-72
2022/10/12 04:00:27;;;;;;;15.30;10.43;;;;;;;6.50;100.00;100030.56;1683620;84;21011;-72
2022/10/12 04:02:53;;;;;;;11.93;10.58;;;;;;;6.46;100.00;100034.92;1683710;83;21018;-72
2022/10/12 04:05:20;;;;;;;16.97;11.00;;;;;;;6.43;100.00;100035.39;1683587;85;21069;-72
2022/10/12 04:07:46;;;;;;;17.62;12.95;;;;;;;6.41;100.00;100047.05;1683605;85;20963;-72
2022/10/12 04:10:13;;;;;;;18.40;13.25;;;;;;;6.40;100.00;100045.34;1683654;85;21027;-72
2022/10/12 04:12:40;;;;;;;28.12;17.30;;;;;;;6.40;100.00;100050.50;1683569;84;21448;-72
2022/10/12 04:15:08;;;;;;;25.15;18.42;;;;;;;6.39;100.00;100055.29;1683620;85;21446;-72
2022/10/12 04:17:35;;;;;;;26.25;18.62;;;;;;;6.38;100.00;100061.77;1683571;85;21798;-72
2022/10/12 04:20:02;;;;;;;21.90;15.78;;;;;;;6.35;100.00;100064.39;1683499;85;21558;-72
2022/10/12 04:22:30;;;;;;;19.37;14.13;;;;;;;6.34;100.00;100070.44;1682752;84;20979;-72
2022/10/12 04:24:57;;;;;;;18.45;13.05;;;;;;;6.32;100.00;100073.03;1663036;86;21079;-71
2022/10/12 04:27:23;;;;;;;13.98;11.35;;;;;;;6.34;100.00;100075.16;1663002;85;21648;-73
2022/10/12 04:29:50;;;;;;;23.65;14.63;;;;;;;6.36;100.00;100079.88;1661193;86;21103;-74
2022/10/12 04:32:16;;;;;;;23.85;17.05;;;;;;;6.37;100.00;100079.44;1662804;85;20950;-72
2022/10/12 04:34:44;;;;;;;20.32;16.02;;;;;;;6.39;100.00;100077.69;1662857;85;21013;-72
2022/10/12 04:37:10;;;;;;;18.52;12.90;;;;;;;6.41;100.00;100078.05;1662944;86;20970;-72
2022/10/12 04:39:36;;;;;;;19.25;13.88;;;;;;;6.44;100.00;100077.16;1663017;86;21002;-72
2022/10/12 04:42:05;;;;;;;17.80;13.45;;;;;;;6.46;100.00;100076.27;1663088;86;21127;-73
2022/10/12 04:44:33;;;;;;;36.17;20.23;;;;;;;6.46;100.00;100078.84;1662946;86;21073;-74
2022/10/12 04:47:00;;;;;;;42.55;25.10;;;;;;;6.49;100.00;100080.53;1662987;85;21103;-74
2022/10/12 04:49:27;;;;;;;38.28;21.07;;;;;;;6.50;100.00;100083.09;1663502;85;21450;-74
2022/10/12 04:51:53;;;;;;;36.40;21.73;;;;;;;6.53;100.00;100078.32;1663035;86;21092;-72
2022/10/12 04:54:21;;;;;;;42.67;23.40;;;;;;;6.54;100.00;100083.47;1663256;85;21487;-72
2022/10/12 04:56:48;;;;;;;47.27;26.23;;;;;;;6.56;100.00;100089.47;1662986;85;20970;-72
2022/10/12 04:59:14;;;;;;;28.32;17.15;;;;;;;6.59;100.00;100083.41;1663202;85;21008;-73
2022/10/12 05:01:42;;;;;;;22.13;15.25;;;;;;;6.63;100.00;100094.09;1662960;86;21018;-73
2022/10/12 05:04:08;;;;;;;25.00;14.68;;;;;;;6.69;100.00;100093.14;1663183;86;20970;-73
2022/10/12 05:06:35;;;;;;;22.32;16.93;;;;;;;6.73;100.00;100092.23;1662986;85;21134;-73
2022/10/12 05:09:01;;;;;;;24.77;15.98;;;;;;;6.77;100.00;100100.35;1662858;86;21061;-73
2022/10/12 05:11:28;;;;;;;18.90;13.78;;;;;;;6.80;100.00;100108.03;1662600;86;21013;-73
2022/10/12 05:13:58;;;;;;;15.55;12.28;;;;;;;6.84;100.00;100110.55;1662122;85;21085;-73
2022/10/12 05:16:31;;;;;;;17.62;12.80;;;;;;;6.92;100.00;100113.03;1661901;85;21053;-73
2022/10/12 05:19:05;;;;;;;29.50;14.80;;;;;;;6.98;100.00;100119.84;1662682;86;21635;-72
2022/10/12 05:21:39;;;;;;;22.70;13.70;;;;;;;7.05;100.00;100118.84;1642589;86;21098;-73
2022/10/12 05:24:10;;;;;;;17.95;13.25;;;;;;;7.12;100.00;100125.63;1658177;85;21017;-73
2022/10/12 05:26:40;;;;;;;18.05;12.40;;;;;;;7.18;100.00;100126.39;1661956;86;20975;-72
2022/10/12 05:29:12;;;;;;;20.23;12.88;;;;;;;7.29;100.00;100131.80;1663073;85;20998;-72
2022/10/12 05:31:41;;;;;;;15.65;11.97;;;;;;;7.39;100.00;100132.06;1663080;86;21144;-71
2022/10/12 05:34:11;;;;;;;17.17;12.93;;;;;;;7.50;100.00;100132.71;1662029;86;20969;-71
2022/10/12 05:36:48;;;;;;;21.05;12.55;;;;;;;7.61;100.00;100139.38;1653730;86;21582;-71
2022/10/12 05:39:26;;;;;;;14.38;11.08;;;;;;;7.75;100.00;100142.17;1651964;86;21605;-72
2022/10/12 05:42:05;;;;;;;16.35;12.23;;;;;;;7.91;100.00;100140.54;1647647;86;21111;-73
2022/10/12 05:44:40;;;;;;;16.65;12.75;;;;;;;8.11;100.00;100139.28;1651667;86;21638;-72
2022/10/12 05:47:13;;;;;;;22.32;13.78;;;;;;;8.34;100.00;100149.20;1646758;86;21114;-72
2022/10/12 05:49:45;;;;;;;17.27;11.85;;;;;;;8.59;100.00;100146.48;1651167;86;21547;-73
2022/10/12 05:52:23;;;;;;;20.48;11.12;;;;;;;8.84;100.00;100152.78;1651361;86;21753;-72
2022/10/12 05:54:58;;;;;;;22.25;12.53;;;;;;;9.09;100.00;100157.39;1646686;86;21066;-71
2022/10/12 05:57:28;;;;;;;23.73;12.33;;;;;;;9.27;100.00;100156.49;1651240;86;21255;-72
2022/10/12 05:59:56;;;;;;;20.70;13.40;;;;;;;9.41;100.00;100162.63;1651340;86;21071;-73
2022/10/12 06:02:24;;;;;;;19.02;12.80;;;;;;;9.49;100.00;100150.30;1646590;86;21103;-72
2022/10/12 06:04:52;;;;;;;15.48;10.23;;;;;;;9.59;100.00;100157.42;1641890;86;21059;-72
2022/10/12 06:07:19;;;;;;;17.87;11.65;;;;;;;9.70;100.00;100161.02;1645858;86;21066;-72
2022/10/12 06:09:48;;;;;;;24.20;12.68;;;;;;;9.73;100.00;100164.39;1650911;86;21250;-72
2022/10/12 06:12:17;;;;;;;22.17;12.20;;;;;;;9.77;100.00;100159.52;1646364;86;21067;-72
2022/10/12 06:14:44;;;;;;;16.87;12.53;;;;;;;9.86;100.00;100163.16;1651530;86;21033;-72
2022/10/12 06:17:11;;;;;;;17.17;10.65;;;;;;;9.95;100.00;100160.31;1651640;86;21071;-72
2022/10/12 06:19:39;;;;;;;17.30;13.32;;;;;;;10.09;100.00;100164.27;1651304;86;21119;-73
2022/10/12 06:22:07;;;;;;;21.48;11.75;;;;;;;10.17;100.00;100167.06;1646619;85;21730;-72
2022/10/12 06:24:37;;;;;;;17.25;12.35;;;;;;;10.25;100.00;100166.41;1654303;85;21012;-71
2022/10/12 06:27:05;;;;;;;17.87;12.10;;;;;;;10.32;100.00;100167.94;1627606;87;21131;-72
2022/10/12 06:29:34;;;;;;;12.98;10.38;;;;;;;10.41;100.00;100164.20;1646335;86;21083;-72
2022/10/12 06:32:06;;;;;;;18.45;12.82;;;;;;;10.51;100.00;100174.75;1646128;87;21103;-72
2022/10/12 06:34:36;;;;;;;19.50;12.10;;;;;;;10.59;100.00;100165.42;1646101;87;21151;-73
2022/10/12 06:37:03;;;;;;;15.45;12.47;;;;;;;10.66;100.00;100171.67;1646087;87;21051;-71
2022/10/12 06:39:30;;;;;;;18.45;12.68;;;;;;;10.71;100.00;100176.74;1646151;87;21106;-73
2022/10/12 06:41:57;;;;;;;16.62;11.30;;;;;;;10.73;100.00;100177.55;1661150;85;21086;-72
2022/10/12 06:44:26;;;;;;;20.08;12.45;;;;;;;10.74;100.00;100174.05;1670748;85;21026;-71
2022/10/12 06:46:53;;;;;;;16.02;10.88;;;;;;;10.77;100.00;100183.06;1682301;83;21140;-72
2022/10/12 06:49:20;;;;;;;19.85;12.28;;;;;;;10.84;100.00;100183.70;1636510;85;21692;-72
2022/10/12 06:51:48;;;;;;;13.10;11.00;;;;;;;10.89;100.00;100181.38;1611615;88;21466;-72
2022/10/12 06:54:16;;;;;;;16.27;10.80;;;;;;;11.02;100.00;100193.54;1678771;84;21059;-73
2022/10/12 06:56:43;;;;;;;14.73;11.40;;;;;;;11.09;100.00;100192.45;1679196;85;21091;-71
2022/10/12 06:59:17;;;;;;;19.20;13.90;;;;;;;11.18;100.00;100190.87;1675494;85;21207;-72
2022/10/12 07:01:46;;;;;;;18.80;12.47;;;;;;;11.25;100.00;100195.41;1678815;85;21028;-73
2022/10/12 07:04:13;;;;;;;14.75;12.28;;;;;;;11.26;100.00;100200.56;1673355;85;21028;-74
2022/10/12 07:06:45;;;;;;;15.75;12.07;;;;;;;11.23;100.00;100194.16;1666421;85;21119;-72
2022/10/12 07:09:13;;;;;;;17.42;11.70;;;;;;;11.25;100.00;100194.95;1667749;85;21059;-72
2022/10/12 07:11:40;;;;;;;17.42;12.78;;;;;;;11.35;100.00;100198.12;1650471;85;21154;-71
2022/10/12 07:14:07;;;;;;;18.37;12.25;;;;;;;11.48;100.00;100192.05;1661100;86;21575;-73
2022/10/12 07:16:36;;;;;;;14.50;11.75;;;;;;;11.62;100.00;100193.27;1661601;86;21035;-71
2022/10/12 07:19:03;;;;;;;17.17;12.35;;;;;;;11.78;100.00;100195.41;1670416;84;21043;-71
2022/10/12 07:21:31;;;;;;;11.18;10.13;;;;;;;11.88;100.00;100197.63;1688026;84;21014;-72
2022/10/12 07:24:03;;;;;;;12.00;9.90;;;;;;;12.00;100.00;100197.17;1688897;83;21158;-70
2022/10/12 07:26:35;;;;;;;18.53;11.93;;;;;;;12.08;99.42;100193.00;1609205;86;21109;-73
2022/10/12 07:29:04;;;;;;;16.75;10.75;;;;;;;12.15;99.24;100186.67;1609239;89;21393;-72
2022/10/12 07:31:31;;;;;;;14.80;10.75;;;;;;;12.22;98.80;100192.04;1635418;86;21092;-72
2022/10/12 07:33:58;;;;;;;16.62;11.60;;;;;;;12.28;98.30;100194.43;1653086;86;21049;-71
2022/10/12 07:36:30;;;;;;;15.65;11.80;;;;;;;12.30;97.47;100191.31;1660345;86;21129;-73
2022/10/12 07:39:02;;;;;;;14.70;10.85;;;;;;;12.28;96.94;100185.30;1660515;86;21071;-71
2022/10/12 07:41:36;;;;;;;13.88;10.82;;;;;;;12.26;96.86;100188.42;1664885;86;21672;-72
2022/10/12 07:44:03;;;;;;;16.87;10.90;;;;;;;12.26;96.81;100187.11;1665931;86;21069;-71
2022/10/12 07:46:32;;;;;;;16.93;11.50;;;;;;;12.28;96.42;100188.36;1668466;84;21085;-72
2022/10/12 07:49:00;;;;;;;13.53;11.73;;;;;;;12.30;96.44;100186.09;1655625;84;21577;-73
2022/10/12 07:51:27;;;;;;;13.18;11.38;;;;;;;12.34;96.51;100185.53;1654463;86;20998;-73
2022/10/12 07:53:54;;;;;;;12.80;11.25;;;;;;;12.38;95.99;100184.52;1647539;84;21539;-71
2022/10/12 07:56:21;;;;;;;15.28;10.43;;;;;;;12.43;95.65;100182.11;1636253;86;21173;-70
2022/10/12 07:58:50;;;;;;;14.15;10.43;;;;;;;12.52;94.76;100198.34;1680200;85;21003;-71
2022/10/12 08:01:20;;;;;;;18.98;11.18;;;;;;;12.56;93.62;100190.80;1689396;85;21806;-72
2022/10/12 08:03:47;;;;;;;12.35;10.32;;;;;;;12.58;93.79;100190.29;1684462;85;20954;-72
2022/10/12 08:06:24;;;;;;;11.90;9.98;;;;;;;12.63;93.15;100194.41;1659606;85;21042;-73
2022/10/12 08:08:54;;;;;;;13.90;9.68;;;;;;;12.68;93.14;100181.18;1687403;85;21521;-72
2022/10/12 08:11:21;;;;;;;13.35;10.45;;;;;;;12.72;92.87;100183.63;1686938;85;21641;-71
2022/10/12 08:13:50;;;;;;;25.65;11.55;;;;;;;12.74;92.68;100179.20;1687202;85;21085;-71
2022/10/12 08:16:19;;;;;;;13.95;9.28;;;;;;;12.78;92.67;100178.63;1687808;85;21057;-72
2022/10/12 08:18:56;;;;;;;13.80;9.23;;;;;;;12.82;92.68;100185.86;1687597;85;21474;-70
2022/10/12 08:21:38;;;;;;;12.20;10.08;;;;;;;12.86;92.24;100188.30;1688101;85;21018;-71
2022/10/12 08:24:10;;;;;;;11.60;9.60;;;;;;;12.88;91.82;100186.47;1657675;84;21046;-71
2022/10/12 08:26:39;;;;;;;11.97;10.32;;;;;;;12.88;91.63;100186.47;1678226;85;21223;-71
2022/10/12 08:29:07;;;;;;;15.00;9.73;;;;;;;12.91;91.31;100193.34;1675778;85;21019;-73
2022/10/12 08:31:34;;;;;;;12.28;9.00;;;;;;;12.93;90.73;100191.06;1673778;85;21069;-71
2022/10/12 08:34:05;;;;;;;10.93;8.55;;;;;;;12.93;90.35;100183.23;1678178;85;21701;-72
2022/10/12 08:36:46;;;;;;;10.50;8.80;;;;;;;12.91;90.27;100194.19;1678337;85;21164;-74
2022/10/12 08:39:34;;;;;;;11.48;8.53;;;;;;;12.87;90.19;100188.69;1683284;83;21080;-74
2022/10/12 08:42:34;;;;;;;11.95;9.08;;;;;;;12.88;90.06;100198.22;1714381;83;21037;-73
2022/10/12 08:45:29;;;;;;;10.80;8.90;;;;;;;12.95;89.66;100191.86;1683614;83;21018;-71
2022/10/12 08:48:46;;;;;;;14.25;8.75;;;;;;;13.04;90.08;100189.32;1669157;84;21123;-73
2022/10/12 08:55:26;;;;;;;17.80;9.38;;;;;;;13.13;87.76;100190.27;1598162;88;21136;-71
2022/10/12 08:58:35;;;;;;;10.95;9.15;;;;;;;13.17;87.81;100190.58;1621410;88;21492;-71
2022/10/12 09:01:48;;;;;;;17.10;9.90;;;;;;;13.23;87.76;100186.39;1614965;88;21607;-71
2022/10/12 09:05:07;;;;;;;9.38;8.40;;;;;;;13.29;88.21;100189.22;1622901;88;21536;-69
2022/10/12 09:08:03;;;;;;;9.28;7.40;;;;;;;13.35;86.79;100187.67;1653258;84;21057;-72
2022/10/12 09:11:01;;;;;;;9.48;5.75;;;;;;;13.37;84.40;100179.31;1609511;87;21091;-70
2022/10/12 09:14:03;;;;;;;13.32;5.95;;;;;;;13.43;82.58;100190.34;1625205;88;21081;-70
2022/10/12 09:16:45;;;;;;;14.18;6.95;;;;;;;13.45;77.23;100190.28;1637138;86;21581;-72
2022/10/12 09:19:32;;;;;;;18.70;9.88;;;;;;;13.45;78.01;100191.12;1652050;86;21480;-72
2022/10/12 09:22:29;;;;;;;19.55;11.63;;;;;;;13.50;79.29;100189.63;1631459;86;37674;-73
2022/10/12 09:25:24;;;;;;;14.90;10.23;;;;;;;13.54;77.31;100186.44;1589180;89;21136;-71
2022/10/12 09:28:04;;;;;;;9.73;7.70;;;;;;;13.53;77.42;100194.73;1523851;93;21127;-69
2022/10/12 09:30:46;;;;;;;10.05;7.85;;;;;;;13.50;77.78;100196.63;1497188;95;21171;-71
2022/10/12 09:33:31;;;;;;;12.90;8.90;;;;;;;13.46;78.55;100188.05;1497074;95;21170;-70
2022/10/12 09:36:12;;;;;;;9.65;6.40;;;;;;;13.47;78.56;100191.52;1474183;97;21143;-70
2022/10/12 09:38:54;;;;;;;7.17;5.50;;;;;;;13.48;75.15;100197.99;1502529;94;21058;-69
2022/10/12 09:41:50;;;;;;;8.35;6.72;;;;;;;13.45;74.60;100192.44;1519866;94;21018;-71
2022/10/12 09:44:57;;;;;;;7.28;5.90;;;;;;;13.45;74.81;100181.98;1520344;92;21122;-71
2022/10/12 09:47:32;;;;;;;8.85;6.87;;;;;;;13.51;75.12;100190.03;1512054;94;21154;-69
2022/10/12 09:50:04;;;;;;;8.18;7.05;;;;;;;13.58;76.45;100184.09;1524304;94;21081;-71
2022/10/12 09:52:42;;;;;;;9.78;6.35;;;;;;;13.65;75.12;100184.20;1513764;94;21200;-69
2022/10/12 09:55:25;;;;;;;10.05;5.75;;;;;;;13.71;75.58;100185.27;1514406;94;21255;-70
2022/10/12 09:57:56;;;;;;;6.28;5.47;;;;;;;13.76;75.98;100181.55;1519235;94;21283;-70
2022/10/12 10:00:30;;;;;;;13.20;6.40;;;;;;;13.86;73.59;100180.67;1530199;93;21054;-70
2022/10/12 10:02:57;;;;;;;7.60;5.37;;;;;;;13.93;72.48;100186.03;1519663;94;21094;-70
2022/10/12 10:05:33;;;;;;;7.95;5.97;;;;;;;14.04;71.32;100175.09;1519560;94;21163;-70
2022/10/12 10:08:22;;;;;;;13.03;5.60;;;;;;;14.18;70.22;100178.41;1535579;89;21470;-70
2022/10/12 10:10:57;;;;;;;5.40;4.83;;;;;;;14.26;70.47;100178.90;1604741;89;21186;-70
2022/10/12 10:13:30;;;;;;;8.10;5.05;;;;;;;14.31;68.80;100175.16;1598937;88;21094;-71
2022/10/12 10:16:11;;;;;;;14.98;5.95;;;;;;;14.38;68.23;100175.28;1599879;89;21144;-70
2022/10/12 10:18:58;;;;;;;11.45;6.67;;;;;;;14.52;67.72;100170.75;1596222;87;21093;-70
2022/10/12 10:21:35;;;;;;;5.62;4.72;;;;;;;14.67;67.03;100165.25;1623935;88;21032;-70
2022/10/12 10:24:04;;;;;;;6.92;4.75;;;;;;;14.79;66.27;100173.81;1630248;87;21590;-70
2022/10/12 10:27:01;;;;;;;7.03;4.92;;;;;;;14.83;66.11;100168.83;1679615;85;21590;-70
2022/10/12 10:29:39;;;;;;;8.83;4.28;;;;;;;14.82;66.29;100164.05;1663636;84;21046;-72
2022/10/12 10:32:28;;;;;;;10.28;4.60;;;;;;;14.99;63.39;100161.07;1645290;85;21868;-71
2022/10/12 10:35:27;;;;;;;4.37;3.98;;;;;;;14.99;63.39;100161.07;1683932;84;21624;-71
2022/10/12 10:38:10;;;;;;;5.40;3.77;;;;;;;15.14;62.64;100163.81;1676957;84;21041;-71
2022/10/12 10:40:55;;;;;;;5.37;3.65;;;;;;;15.29;60.06;100158.27;1663671;85;21006;-71
2022/10/12 10:43:31;;;;;;;6.42;3.90;;;;;;;15.40;58.18;100148.55;1688442;84;20961;-71
2022/10/12 10:46:03;;;;;;;4.50;3.65;;;;;;;15.52;58.66;100145.32;1653142;85;21272;-72
2022/10/12 10:49:00;;;;;;;8.28;3.75;;;;;;;15.67;59.18;100146.33;1690307;84;21022;-71
2022/10/12 10:51:51;;;;;;;4.78;3.95;;;;;;;15.83;57.61;100149.39;1679115;85;21051;-71
2022/10/12 10:54:28;;;;;;;3.95;2.47;;;;;;;15.93;57.54;100144.98;1660715;83;21511;-69
2022/10/12 10:57:04;;;;;;;7.35;2.60;;;;;;;15.91;54.90;100148.16;1680160;85;21014;-71
2022/10/12 10:59:52;;;;;;;3.30;2.55;;;;;;;15.71;54.59;100152.66;1677751;85;21230;-72
2022/10/12 11:02:35;;;;;;;4.80;2.67;;;;;;;15.43;56.03;100151.02;1683097;83;21027;-70
2022/10/12 11:05:11;;;;;;;4.17;2.77;;;;;;;15.12;56.80;100147.32;1667845;84;21036;-72
2022/10/12 11:08:05;;;;;;;4.50;2.92;;;;;;;14.89;57.59;100144.97;1657692;84;21064;-71
2022/10/12 11:11:04;;;;;;;3.90;2.62;;;;;;;14.78;58.34;100144.19;1654917;85;21097;-71
2022/10/12 11:13:45;;;;;;;5.22;2.80;;;;;;;14.74;57.36;100140.02;1669775;84;21256;-72
2022/10/12 11:16:45;;;;;;;5.53;2.83;;;;;;;14.85;57.50;100142.56;1678484;84;21479;-72
2022/10/12 11:19:42;;;;;;;5.30;2.50;;;;;;;14.88;56.72;100132.80;1675016;84;21023;-72
2022/10/12 11:22:39;;;;;;;4.75;3.37;;;;;;;14.85;57.02;100138.17;1654006;85;21042;-73
2022/10/12 11:25:33;;;;;;;4.42;2.67;;;;;;;14.78;58.51;100133.72;1675880;83;21661;-73
2022/10/12 11:28:06;;;;;;;6.80;2.70;;;;;;;14.78;58.51;100133.72;1692027;84;21582;-75
2022/10/12 11:30:42;;;;;;;5.50;2.62;;;;;;;14.75;58.63;100135.17;1681392;84;21080;-73
2022/10/12 11:33:20;;;;;;;6.15;3.00;;;;;;;14.71;58.86;100134.92;1622290;88;21522;-71
2022/10/12 11:35:53;;;;;;;6.60;2.85;;;;;;;14.72;58.18;100137.08;1664146;84;21601;-73
2022/10/12 11:38:35;;;;;;;5.57;3.33;;;;;;;14.79;57.67;100138.46;1694225;84;21021;-73
2022/10/12 11:41:18;;;;;;;8.65;2.65;;;;;;;14.90;57.78;100137.50;1708742;84;21134;-71
2022/10/12 11:44:13;;;;;;;5.80;2.43;;;;;;;15.04;56.95;100129.81;1708867;84;20959;-72
2022/10/12 11:47:04;;;;;;;5.75;2.33;;;;;;;15.16;55.42;100142.32;1708148;84;21325;-71
2022/10/12 11:50:07;;;;;;;3.85;2.25;;;;;;;15.04;54.32;100141.59;1642490;85;21065;-73
2022/10/12 11:52:42;;;;;;;4.45;2.37;;;;;;;14.88;55.03;100136.73;1708825;84;21011;-73
2022/10/12 11:55:43;;;;;;;6.33;2.87;;;;;;;14.68;55.77;100142.07;1653178;85;21162;-73
2022/10/12 11:58:28;;;;;;;10.93;2.92;;;;;;;14.51;56.91;100132.86;1623750;87;20983;-75
2022/10/12 12:01:14;;;;;;;8.55;3.22;;;;;;;14.45;56.83;100130.06;1679505;85;21575;-75